Time;durP1;ratioP1;P1;durP2;ratioP2;P2;SDS_P1;SDS_P2;PMS_P1;PMS_P2;Temp;Humidity;BMP_temperature;BMP_pressure;BME280_temperature;BME280_humidity;BME280_pressure;Samples;Min_cycle;Max_cycle;Signal;HPM_P1;HPM_P2
2021/03/17 00:00:51;;;;;;;8.33;5.27;;;;;;;0.09;94.04;95908.41;5065830;28;20461;-70
2021/03/17 00:03:38;;;;;;;4.10;3.77;;;;;;;0.15;94.79;95897.56;5061146;28;20244;-70
2021/03/17 00:06:23;;;;;;;5.73;5.33;;;;;;;0.15;94.28;95901.00;5083819;28;20456;-70
2021/03/17 00:09:09;;;;;;;5.57;5.07;;;;;;;0.15;93.71;95895.81;5076326;28;20220;-70
2021/03/17 00:11:55;;;;;;;4.83;4.47;;;;;;;0.21;94.13;95892.75;5075793;28;20542;-70
2021/03/17 00:14:40;;;;;;;8.40;4.90;;;;;;;0.28;94.09;95903.50;5057661;28;20496;-70
2021/03/17 00:17:27;;;;;;;5.30;4.90;;;;;;;0.31;93.80;95897.25;5052566;28;20227;-70
2021/03/17 00:20:14;;;;;;;4.67;4.23;;;;;;;0.23;94.23;95898.66;5066752;28;20232;-69
2021/03/17 00:23:00;;;;;;;4.33;3.90;;;;;;;0.23;94.34;95898.66;5069703;28;20742;-70
2021/03/17 00:25:46;;;;;;;6.43;5.33;;;;;;;0.24;93.86;95892.53;5045715;28;20467;-70
2021/03/17 00:28:31;;;;;;;7.10;4.93;;;;;;;0.26;94.31;95890.63;5045329;28;20474;-70
2021/03/17 00:31:17;;;;;;;4.80;4.40;;;;;;;0.32;93.93;95891.13;5058125;28;20466;-70
2021/03/17 00:34:04;;;;;;;7.13;5.13;;;;;;;0.36;94.17;95889.94;5064018;28;20233;-70
2021/03/17 00:36:50;;;;;;;4.83;4.43;;;;;;;0.38;94.07;95888.91;5064120;28;20220;-70
2021/03/17 00:39:36;;;;;;;5.37;4.23;;;;;;;0.48;93.91;95889.84;5049427;28;20310;-70
2021/03/17 00:42:22;;;;;;;5.47;5.17;;;;;;;0.47;93.63;95887.38;5059286;28;20225;-70
2021/03/17 00:45:09;;;;;;;7.47;6.43;;;;;;;0.35;93.88;95877.91;5060950;28;20229;-70
2021/03/17 00:47:54;;;;;;;4.30;4.00;;;;;;;0.41;94.21;95882.63;5061727;28;20461;-70
2021/03/17 00:50:22;;;;;;;5.60;5.20;;;;;;;0.38;94.21;95882.88;5063649;28;20225;-69
2021/03/17 00:52:55;;;;;;;5.03;4.60;;;;;;;0.34;94.19;95877.06;5070923;28;20290;-70
2021/03/17 00:55:25;;;;;;;4.53;4.13;;;;;;;0.33;94.25;95874.59;5063857;28;20266;-70
2021/03/17 00:57:55;;;;;;;5.37;4.87;;;;;;;0.37;95.06;95883.81;5062741;28;20212;-70
2021/03/17 01:00:23;;;;;;;5.77;4.10;;;;;;;0.29;94.86;95876.63;5063651;28;20276;-69
2021/03/17 01:02:50;;;;;;;5.37;4.87;;;;;;;0.31;95.12;95876.50;5064196;28;20219;-70
2021/03/17 01:05:17;;;;;;;5.97;4.90;;;;;;;0.30;94.66;95875.66;5065664;28;20231;-70
2021/03/17 01:07:44;;;;;;;3.47;3.17;;;;;;;0.40;94.88;95870.59;5072952;28;20563;-69
2021/03/17 01:10:16;;;;;;;4.77;4.43;;;;;;;0.38;94.66;95867.31;5052548;28;20229;-70
2021/03/17 01:12:43;;;;;;;5.00;4.60;;;;;;;0.39;93.99;95868.97;5065054;28;20225;-70
2021/03/17 01:15:12;;;;;;;4.27;3.87;;;;;;;0.28;94.14;95862.81;5063373;28;20273;-70
2021/03/17 01:17:39;;;;;;;6.27;4.97;;;;;;;0.15;95.12;95859.47;5056813;28;20714;-69
2021/03/17 01:20:08;;;;;;;5.30;4.83;;;;;;;0.23;94.08;95859.72;5059586;28;20227;-70
2021/03/17 01:22:35;;;;;;;4.30;3.90;;;;;;;0.16;94.47;95853.34;5050307;28;20228;-70
2021/03/17 01:25:02;;;;;;;3.73;3.43;;;;;;;0.08;94.85;95849.66;5065226;28;21073;-70
2021/03/17 01:27:30;;;;;;;5.67;5.07;;;;;;;-0.08;95.71;95850.00;5066482;28;20277;-70
2021/03/17 01:29:57;;;;;;;3.73;3.43;;;;;;;-0.19;96.26;95855.97;5071901;28;20219;-70
2021/03/17 01:32:24;;;;;;;6.63;4.37;;;;;;;-0.25;96.30;95842.66;5063094;28;20216;-70
2021/03/17 01:34:51;;;;;;;4.50;4.10;;;;;;;-0.31;97.15;95849.09;5068436;28;20220;-69
2021/03/17 01:37:18;;;;;;;4.90;4.50;;;;;;;-0.34;97.11;95844.16;5053660;28;20222;-69
2021/03/17 01:39:45;;;;;;;4.40;4.00;;;;;;;-0.34;97.71;95839.78;5063158;28;20465;-69
2021/03/17 01:42:14;;;;;;;3.93;3.57;;;;;;;-0.33;98.20;95836.25;5071843;28;20918;-69
2021/03/17 01:44:43;;;;;;;2.77;2.60;;;;;;;-0.21;98.19;95823.31;5059873;28;20454;-68
2021/03/17 01:47:10;;;;;;;2.97;2.77;;;;;;;-0.19;97.79;95831.78;5063493;28;20572;-69
2021/03/17 01:49:37;;;;;;;3.50;3.20;;;;;;;-0.19;97.94;95831.78;5059709;28;20245;-69
2021/03/17 01:52:05;;;;;;;5.60;5.20;;;;;;;-0.21;98.13;95828.50;5076255;28;20477;-70
2021/03/17 01:54:32;;;;;;;3.53;3.33;;;;;;;-0.26;98.07;95822.84;5067912;28;20775;-69
2021/03/17 01:56:59;;;;;;;3.33;3.13;;;;;;;-0.28;98.70;95825.53;5057139;28;20524;-69
2021/03/17 01:59:26;;;;;;;3.90;3.57;;;;;;;-0.26;98.64;95820.25;5065753;28;20998;-69
2021/03/17 02:01:56;;;;;;;3.53;3.27;;;;;;;-0.15;98.98;95812.50;5069407;28;20473;-69
2021/03/17 02:04:23;;;;;;;5.33;3.50;;;;;;;-0.14;98.40;95811.53;5064368;28;20274;-70
2021/03/17 02:06:51;;;;;;;3.80;3.50;;;;;;;-0.14;98.72;95819.31;5064847;28;20235;-70
2021/03/17 02:09:18;;;;;;;4.50;4.20;;;;;;;-0.20;98.16;95802.44;5059228;28;20235;-69
2021/03/17 02:11:55;;;;;;;3.60;3.30;;;;;;;-0.22;98.28;95817.28;5070880;28;20272;-69
2021/03/17 02:14:35;;;;;;;3.47;3.23;;;;;;;-0.23;98.80;95807.03;5065836;28;20450;-70
2021/03/17 02:17:12;;;;;;;4.97;4.60;;;;;;;-0.29;98.66;95810.91;5044602;28;20497;-70
2021/03/17 02:20:18;;;;;;;5.33;4.73;;;;;;;-0.26;98.50;95809.88;5057742;28;20482;-70
2021/03/17 02:22:49;;;;;;;5.80;5.33;;;;;;;-0.30;98.35;95810.09;5024802;28;20522;-70
2021/03/17 02:25:38;;;;;;;6.30;5.43;;;;;;;-0.34;98.24;95813.84;5056783;28;20583;-70
2021/03/17 02:28:17;;;;;;;6.80;6.07;;;;;;;-0.30;98.64;95807.50;5074827;28;20491;-70
2021/03/17 02:31:07;;;;;;;8.73;7.83;;;;;;;-0.26;98.10;95805.50;5055093;28;20459;-70
2021/03/17 02:33:58;;;;;;;6.53;6.00;;;;;;;-0.25;97.99;95811.53;5064250;28;20473;-70
2021/03/17 02:36:34;;;;;;;6.77;6.17;;;;;;;-0.22;98.73;95806.09;5066458;28;20543;-69
2021/03/17 02:39:07;;;;;;;7.53;6.87;;;;;;;-0.24;98.24;95802.81;5069440;28;21020;-70
2021/03/17 02:41:42;;;;;;;6.67;6.17;;;;;;;-0.26;98.17;95805.50;5067374;28;20469;-70
2021/03/17 02:44:13;;;;;;;7.13;6.53;;;;;;;-0.25;98.69;95801.16;5070329;28;20524;-70
2021/03/17 02:46:42;;;;;;;7.80;7.10;;;;;;;-0.26;98.42;95799.50;5059127;28;20262;-70
2021/03/17 02:49:16;;;;;;;7.53;6.83;;;;;;;-0.29;98.46;95801.38;5070191;28;21059;-70
2021/03/17 02:51:48;;;;;;;8.30;7.27;;;;;;;-0.25;98.76;95795.97;5066330;28;20488;-70
2021/03/17 02:54:18;;;;;;;9.77;8.07;;;;;;;-0.26;98.24;95805.50;5059312;28;20474;-70
2021/03/17 02:56:49;;;;;;;10.10;9.10;;;;;;;-0.26;98.66;95799.50;5067483;28;20465;-70
2021/03/17 02:59:17;;;;;;;7.90;7.13;;;;;;;-0.22;97.85;95798.31;5066829;28;20557;-70
2021/03/17 03:01:50;;;;;;;7.60;7.00;;;;;;;-0.25;98.31;95795.97;5072219;28;21002;-70
2021/03/17 03:04:20;;;;;;;7.90;7.10;;;;;;;-0.19;98.29;95800.69;5075063;28;20473;-70
2021/03/17 03:06:49;;;;;;;8.57;7.67;;;;;;;-0.21;98.13;95807.75;5067481;28;20462;-70
2021/03/17 03:09:18;;;;;;;8.80;7.77;;;;;;;-0.16;98.29;95803.06;5064289;28;21012;-70
2021/03/17 03:11:45;;;;;;;7.33;6.73;;;;;;;-0.13;97.94;95795.03;5074092;28;20485;-70
2021/03/17 03:14:13;;;;;;;7.87;7.13;;;;;;;-0.12;98.20;95794.09;5066428;28;20738;-69
2021/03/17 03:16:41;;;;;;;8.93;7.57;;;;;;;-0.16;98.38;95795.28;5065782;28;20220;-70
2021/03/17 03:19:10;;;;;;;9.67;8.77;;;;;;;-0.13;98.22;95792.44;5063830;28;20849;-70
2021/03/17 03:21:39;;;;;;;9.23;8.33;;;;;;;-0.18;98.43;95791.94;5062348;28;20240;-70
2021/03/17 03:24:07;;;;;;;8.83;8.03;;;;;;;-0.17;98.33;95796.22;5062313;28;20850;-70
2021/03/17 03:26:35;;;;;;;8.43;7.63;;;;;;;-0.19;98.87;95790.31;5066795;28;20219;-70
2021/03/17 03:29:04;;;;;;;9.67;8.60;;;;;;;-0.18;98.96;95797.13;5065840;28;20478;-70
2021/03/17 03:31:32;;;;;;;7.53;6.87;;;;;;;-0.18;98.83;95787.63;5070722;28;20479;-70
2021/03/17 03:34:01;;;;;;;7.67;7.07;;;;;;;-0.18;98.43;95789.34;5070559;28;21020;-70
2021/03/17 03:36:28;;;;;;;11.30;10.20;;;;;;;-0.20;98.22;95793.84;5062482;28;20292;-70
2021/03/17 03:38:59;;;;;;;8.90;8.20;;;;;;;-0.22;98.72;95782.75;5063150;28;20227;-70
2021/03/17 03:41:28;;;;;;;10.43;7.50;;;;;;;-0.23;98.95;95797.50;5053723;28;20225;-70
2021/03/17 03:43:55;;;;;;;9.83;8.93;;;;;;;-0.24;99.16;95795.84;5067976;28;20306;-70
2021/03/17 03:46:33;;;;;;;9.60;8.73;;;;;;;-0.28;98.65;95786.63;5066118;28;20273;-70
2021/03/17 03:49:02;;;;;;;9.33;8.47;;;;;;;-0.25;98.93;95786.41;5050455;28;20458;-70
2021/03/17 03:51:30;;;;;;;9.30;8.40;;;;;;;-0.26;99.06;95800.31;5066661;28;20348;-70
2021/03/17 03:54:09;;;;;;;10.47;9.57;;;;;;;-0.29;99.07;95796.19;5065359;28;20702;-69
2021/03/17 03:56:41;;;;;;;9.13;8.20;;;;;;;-0.28;99.10;95800.41;5066427;28;20522;-70
2021/03/17 03:59:13;;;;;;;9.30;8.40;;;;;;;-0.28;99.74;95791.81;5059982;28;20478;-70
2021/03/17 04:01:46;;;;;;;10.33;8.77;;;;;;;-0.32;99.81;95795.59;5063475;28;20230;-70
2021/03/17 04:04:16;;;;;;;10.60;9.33;;;;;;;-0.29;99.81;95801.38;5074432;28;20453;-70
2021/03/17 04:06:48;;;;;;;10.63;9.70;;;;;;;-0.28;99.38;95797.00;5053633;28;21057;-70
2021/03/17 04:09:18;;;;;;;11.63;9.40;;;;;;;-0.28;99.50;95802.19;5062942;28;21206;-69
2021/03/17 04:11:47;;;;;;;10.30;9.30;;;;;;;-0.28;99.18;95803.00;5063957;28;20801;-70
2021/03/17 04:14:18;;;;;;;10.57;9.53;;;;;;;-0.26;99.71;95802.09;5073916;28;20997;-70
2021/03/17 04:16:58;;;;;;;9.57;8.67;;;;;;;-0.26;99.61;95809.88;5065633;28;20485;-70
2021/03/17 04:19:27;;;;;;;12.80;11.37;;;;;;;-0.25;99.67;95806.34;5064036;28;20889;-70
2021/03/17 04:21:56;;;;;;;13.03;11.73;;;;;;;-0.19;99.99;95805.84;5064011;28;21005;-69
2021/03/17 04:24:26;;;;;;;11.77;10.57;;;;;;;0.00;99.54;95813.94;5068007;28;20968;-70
2021/03/17 04:26:53;;;;;;;10.27;9.27;;;;;;;0.06;99.18;95805.69;5066241;28;20522;-70
2021/03/17 04:29:23;;;;;;;10.13;9.33;;;;;;;-0.09;99.16;95809.41;5058962;28;20522;-70
2021/03/17 04:31:51;;;;;;;11.70;8.90;;;;;;;-0.03;99.21;95807.19;5068723;28;20701;-70
2021/03/17 04:34:19;;;;;;;10.97;8.73;;;;;;;0.06;99.33;95812.63;5066458;28;20482;-70
2021/03/17 04:36:47;;;;;;;10.57;9.53;;;;;;;0.07;98.46;95811.69;5077408;28;20380;-70
2021/03/17 04:39:16;;;;;;;11.93;10.73;;;;;;;0.01;98.60;95818.19;5059472;28;20485;-69
2021/03/17 04:41:45;;;;;;;9.37;8.47;;;;;;;0.00;98.40;95816.53;5069498;28;20475;-70
2021/03/17 04:44:13;;;;;;;10.07;9.13;;;;;;;0.06;98.31;95810.88;5061931;28;20465;-70
2021/03/17 04:46:41;;;;;;;10.13;9.17;;;;;;;0.08;98.71;95814.16;5064313;28;20466;-70
2021/03/17 04:49:09;;;;;;;8.47;7.67;;;;;;;0.10;98.57;95812.31;5050798;28;20240;-69
2021/03/17 04:51:37;;;;;;;9.23;8.43;;;;;;;0.07;97.90;95814.28;5062513;28;20285;-70
2021/03/17 04:54:05;;;;;;;9.47;8.60;;;;;;;0.09;98.99;95818.44;5059885;28;20212;-70
2021/03/17 04:56:33;;;;;;;9.50;8.60;;;;;;;0.07;98.32;95816.88;5066565;28;20698;-68
2021/03/17 04:59:02;;;;;;;9.20;8.37;;;;;;;0.10;98.43;95817.50;5078480;28;20224;-70
2021/03/17 05:01:32;;;;;;;9.63;8.83;;;;;;;0.14;98.21;95811.13;5066983;28;20235;-69
2021/03/17 05:04:00;;;;;;;7.40;6.70;;;;;;;0.19;98.49;95806.41;5063590;28;20216;-70
2021/03/17 05:06:30;;;;;;;9.33;8.43;;;;;;;0.19;98.69;95816.78;5062153;28;20541;-69
2021/03/17 05:08:58;;;;;;;8.13;7.43;;;;;;;0.18;98.39;95809.97;5070262;28;20875;-70
2021/03/17 05:11:26;;;;;;;7.83;7.17;;;;;;;0.23;98.29;95813.00;5054387;28;20227;-69
2021/03/17 05:13:53;;;;;;;7.80;7.00;;;;;;;0.28;98.85;95804.88;5063874;28;20569;-68
2021/03/17 05:16:21;;;;;;;7.57;6.87;;;;;;;0.33;98.35;95813.13;5060962;28;20250;-69
2021/03/17 05:18:50;;;;;;;7.60;7.00;;;;;;;0.38;98.16;95812.78;5071629;28;20251;-68
2021/03/17 05:21:18;;;;;;;8.60;7.53;;;;;;;0.43;98.42;95818.44;5069459;28;20272;-69
2021/03/17 05:23:45;;;;;;;8.83;8.03;;;;;;;0.39;98.23;95819.63;5060440;28;20425;-68
2021/03/17 05:26:13;;;;;;;8.33;7.53;;;;;;;0.40;97.72;95819.50;5044349;28;20270;-68
2021/03/17 05:28:40;;;;;;;8.83;8.10;;;;;;;0.38;98.07;95810.19;5058009;28;20349;-69
2021/03/17 05:31:09;;;;;;;7.67;7.07;;;;;;;0.40;97.97;95818.69;5062175;28;20538;-69
2021/03/17 05:33:38;;;;;;;7.20;6.67;;;;;;;0.45;97.47;95819.16;5065642;28;20663;-68
2021/03/17 05:36:05;;;;;;;8.97;7.73;;;;;;;0.45;97.51;95809.59;5064383;28;20233;-69
2021/03/17 05:38:32;;;;;;;7.80;7.10;;;;;;;0.47;96.86;95817.28;5057257;28;20232;-69
2021/03/17 05:40:59;;;;;;;7.30;6.70;;;;;;;0.52;97.14;95817.72;5047994;28;20240;-68
2021/03/17 05:43:27;;;;;;;7.27;6.67;;;;;;;0.55;97.05;95818.34;5064454;28;20232;-69
2021/03/17 05:45:55;;;;;;;9.10;8.30;;;;;;;0.55;96.97;95822.72;5056444;28;20526;-69
2021/03/17 05:48:25;;;;;;;9.53;8.63;;;;;;;0.56;96.66;95817.41;5061360;28;20225;-68
2021/03/17 05:50:55;;;;;;;10.73;9.73;;;;;;;0.56;97.03;95821.75;5062752;28;20294;-69
2021/03/17 05:53:22;;;;;;;7.30;6.70;;;;;;;0.60;96.10;95820.56;5059758;28;20258;-69
2021/03/17 05:55:49;;;;;;;10.43;9.60;;;;;;;0.56;96.68;95824.34;5061734;28;20246;-69
2021/03/17 05:58:17;;;;;;;9.43;8.47;;;;;;;0.55;96.34;95833.09;5060717;28;20229;-68
2021/03/17 06:00:44;;;;;;;14.70;9.83;;;;;;;0.54;96.55;95836.59;5063332;28;20300;-69
2021/03/17 06:03:13;;;;;;;9.90;8.23;;;;;;;0.64;96.72;95844.50;5058740;28;20272;-69
2021/03/17 06:05:41;;;;;;;8.57;7.77;;;;;;;0.62;95.92;95838.63;5059362;28;20717;-69
2021/03/17 06:08:13;;;;;;;9.73;8.93;;;;;;;0.64;96.35;95842.78;5061576;28;20254;-68
2021/03/17 06:10:40;;;;;;;9.80;8.97;;;;;;;0.67;95.52;95842.53;5058697;28;20286;-69
2021/03/17 06:13:10;;;;;;;8.23;7.43;;;;;;;0.71;95.43;95851.72;5056272;28;20226;-67
2021/03/17 06:15:39;;;;;;;8.77;7.93;;;;;;;0.76;95.94;95847.00;5063162;28;20221;-68
2021/03/17 06:18:29;;;;;;;9.57;8.87;;;;;;;0.85;95.63;95850.66;5057315;28;20237;-69
2021/03/17 06:20:57;;;;;;;12.37;8.07;;;;;;;0.90;94.63;95852.88;5060151;28;20606;-69
2021/03/17 06:23:25;;;;;;;8.83;8.07;;;;;;;0.98;95.30;95858.31;5065071;28;20241;-69
2021/03/17 06:25:52;;;;;;;10.13;9.23;;;;;;;1.00;95.12;95864.22;5054449;28;20226;-68
2021/03/17 06:28:21;;;;;;;11.20;10.07;;;;;;;1.04;94.10;95857.84;5058044;28;20299;-68
2021/03/17 06:30:48;;;;;;;11.00;10.03;;;;;;;0.92;94.45;95870.03;5066159;28;20279;-69
2021/03/17 06:33:15;;;;;;;11.13;9.53;;;;;;;0.85;94.49;95872.25;5062615;28;20302;-69
2021/03/17 06:35:42;;;;;;;9.40;8.50;;;;;;;0.96;93.75;95873.19;5064250;28;20718;-69
2021/03/17 06:38:20;;;;;;;9.27;7.97;;;;;;;1.03;93.04;95875.22;5061620;28;20248;-68
2021/03/17 06:40:58;;;;;;;10.10;9.10;;;;;;;1.06;93.45;95876.72;5058337;28;20222;-69
2021/03/17 06:43:37;;;;;;;8.17;7.43;;;;;;;1.06;92.81;95879.31;5064814;28;20225;-69
2021/03/17 06:46:05;;;;;;;11.17;8.90;;;;;;;1.14;92.19;95882.16;5063639;28;20218;-68
2021/03/17 06:48:51;;;;;;;9.87;8.27;;;;;;;1.17;92.41;95884.50;5060170;28;20631;-69
2021/03/17 06:51:20;;;;;;;10.00;9.07;;;;;;;1.33;92.88;95892.75;5063967;28;20312;-69
2021/03/17 06:53:50;;;;;;;11.07;9.90;;;;;;;1.35;92.50;95885.66;5062213;28;20686;-68
2021/03/17 06:56:20;;;;;;;10.20;8.67;;;;;;;1.42;91.77;95892.03;5061129;28;20759;-68
2021/03/17 06:58:50;;;;;;;10.20;9.00;;;;;;;1.52;91.89;95896.47;5064279;28;20597;-68
2021/03/17 07:01:32;;;;;;;9.50;8.60;;;;;;;1.62;91.28;95894.78;5064072;28;20242;-68
2021/03/17 07:04:02;;;;;;;8.63;7.60;;;;;;;1.73;91.67;95886.13;5055459;28;20253;-69
2021/03/17 07:06:30;;;;;;;8.97;7.43;;;;;;;1.85;91.06;95888.56;5059958;28;20226;-69
2021/03/17 07:08:57;;;;;;;9.73;8.67;;;;;;;1.93;91.28;95901.78;5058558;28;20245;-69
2021/03/17 07:11:31;;;;;;;9.50;7.97;;;;;;;1.95;90.01;95902.47;5061672;28;20214;-68
2021/03/17 07:14:01;;;;;;;11.07;10.20;;;;;;;2.06;89.68;95903.38;5069884;28;20218;-69
2021/03/17 07:16:36;;;;;;;9.00;8.20;;;;;;;2.07;89.37;95899.81;5066700;28;20225;-69
2021/03/17 07:19:31;;;;;;;11.17;8.53;;;;;;;1.89;89.33;95895.16;5063272;28;20306;-69
2021/03/17 07:22:11;;;;;;;10.13;8.47;;;;;;;1.94;88.77;95890.44;5061042;28;20696;-69
2021/03/17 07:24:41;;;;;;;9.63;8.80;;;;;;;1.94;88.48;95898.22;5056539;28;20226;-67
2021/03/17 07:27:19;;;;;;;10.23;9.13;;;;;;;2.08;87.70;95893.66;5060541;28;20778;-69
2021/03/17 07:30:06;;;;;;;11.10;8.73;;;;;;;2.27;88.59;95899.81;5064711;28;20291;-69
2021/03/17 07:32:57;;;;;;;9.73;8.83;;;;;;;2.42;87.27;95895.13;5064830;28;20228;-68
2021/03/17 07:35:25;;;;;;;11.60;10.47;;;;;;;2.50;86.51;95900.53;5066641;28;20734;-68
2021/03/17 07:38:05;;;;;;;9.50;8.47;;;;;;;2.58;86.42;95901.66;5061528;28;21269;-69
2021/03/17 07:40:34;;;;;;;8.50;7.70;;;;;;;2.70;86.91;95905.84;5067414;28;20222;-69
2021/03/17 07:43:03;;;;;;;9.63;8.73;;;;;;;2.41;85.65;95911.72;5068191;28;20218;-69
2021/03/17 07:45:33;;;;;;;10.63;9.53;;;;;;;2.06;86.80;95917.22;5065597;28;20291;-67
2021/03/17 07:48:04;;;;;;;10.00;7.67;;;;;;;1.84;87.80;95910.34;5069798;28;20222;-68
2021/03/17 07:50:33;;;;;;;11.30;10.20;;;;;;;2.03;88.34;95916.66;5066949;28;20690;-69
2021/03/17 07:53:01;;;;;;;7.43;6.80;;;;;;;2.19;88.87;95917.03;5061710;28;20731;-69
2021/03/17 07:55:29;;;;;;;11.43;10.40;;;;;;;2.41;88.41;95916.91;5058836;28;20233;-69
2021/03/17 07:57:57;;;;;;;9.50;8.70;;;;;;;2.30;88.33;95918.78;5065854;28;20640;-69
2021/03/17 08:00:25;;;;;;;8.80;7.97;;;;;;;2.27;88.57;95919.81;5061162;28;20245;-69
2021/03/17 08:02:53;;;;;;;9.23;8.33;;;;;;;2.42;87.74;95921.19;5060157;28;20253;-68
2021/03/17 08:05:26;;;;;;;11.07;7.80;;;;;;;2.54;86.71;95922.75;5067689;28;20317;-69
2021/03/17 08:07:53;;;;;;;10.53;9.53;;;;;;;2.58;86.76;95917.31;5065708;28;20218;-69
2021/03/17 08:10:20;;;;;;;10.10;8.40;;;;;;;2.54;86.96;95921.94;5062130;28;20253;-69
2021/03/17 08:12:47;;;;;;;9.13;7.80;;;;;;;2.79;86.28;95931.13;5065799;28;20245;-69
2021/03/17 08:15:16;;;;;;;6.93;6.27;;;;;;;2.97;86.12;95921.75;5064605;28;20711;-69
2021/03/17 08:17:44;;;;;;;8.37;7.57;;;;;;;2.94;84.79;95924.63;5060566;28;20226;-68
2021/03/17 08:20:14;;;;;;;9.67;8.47;;;;;;;3.04;84.73;95930.69;5064269;28;20303;-69
2021/03/17 08:22:41;;;;;;;9.07;8.27;;;;;;;3.28;84.66;95921.72;5063951;28;20237;-69
2021/03/17 08:25:10;;;;;;;8.43;7.73;;;;;;;3.45;83.30;95923.69;5063302;28;20759;-69
2021/03/17 08:27:37;;;;;;;7.67;6.97;;;;;;;3.59;81.83;95914.66;5061577;28;20252;-69
2021/03/17 08:30:09;;;;;;;8.93;8.03;;;;;;;3.71;82.94;95909.19;5060802;28;20729;-69
2021/03/17 08:33:01;;;;;;;10.97;9.13;;;;;;;4.18;82.05;95906.72;5061823;28;20249;-68
2021/03/17 08:36:00;;;;;;;7.73;6.90;;;;;;;4.86;77.94;95893.53;5061375;28;20707;-69
2021/03/17 08:38:52;;;;;;;7.00;6.50;;;;;;;5.26;75.33;95898.47;5055351;28;20453;-69
2021/03/17 08:41:54;;;;;;;7.97;6.33;;;;;;;5.73;74.87;95906.19;5056364;28;20571;-69
2021/03/17 08:44:23;;;;;;;7.37;6.17;;;;;;;6.08;73.27;95905.41;5066085;28;20227;-69
2021/03/17 08:46:52;;;;;;;8.80;7.97;;;;;;;5.50;72.43;95904.97;5059624;28;20228;-67
2021/03/17 08:49:31;;;;;;;7.97;6.53;;;;;;;4.99;74.89;95901.06;5061136;28;20332;-69
2021/03/17 08:52:02;;;;;;;8.70;7.50;;;;;;;4.31;74.01;95910.84;5060638;28;20239;-68
2021/03/17 08:54:53;;;;;;;6.60;4.93;;;;;;;3.47;75.33;95907.88;5059551;28;20272;-69
2021/03/17 08:57:21;;;;;;;6.03;5.50;;;;;;;3.45;78.47;95908.03;5059591;28;20233;-68
2021/03/17 08:59:50;;;;;;;12.90;5.87;;;;;;;3.55;78.04;95903.66;5062282;28;20230;-69
2021/03/17 09:02:42;;;;;;;8.00;7.20;;;;;;;3.78;77.03;95908.66;5061804;28;20405;-69
2021/03/17 09:05:20;;;;;;;8.53;5.53;;;;;;;3.71;75.31;95909.19;5056643;28;20605;-68
2021/03/17 09:08:06;;;;;;;6.23;5.73;;;;;;;3.73;76.89;95901.22;5061161;28;20227;-68
2021/03/17 09:10:41;;;;;;;7.83;7.20;;;;;;;3.51;75.30;95907.50;5057566;28;20302;-69
2021/03/17 09:13:10;;;;;;;7.43;5.13;;;;;;;3.63;76.65;95909.03;5064430;28;20684;-69
2021/03/17 09:15:49;;;;;;;7.43;6.13;;;;;;;3.47;76.67;95908.72;5060992;28;20222;-69
2021/03/17 09:18:20;;;;;;;7.43;4.83;;;;;;;3.57;76.41;95917.41;5063391;28;20594;-68
2021/03/17 09:20:58;;;;;;;5.20;4.70;;;;;;;3.91;73.47;95906.59;5054728;28;20473;-69
2021/03/17 09:23:36;;;;;;;6.83;6.13;;;;;;;4.94;73.38;95895.41;5070078;28;20226;-69
2021/03/17 09:26:06;;;;;;;8.10;5.40;;;;;;;5.54;72.05;95890.59;5060366;28;20222;-69
2021/03/17 09:28:35;;;;;;;7.17;4.97;;;;;;;5.08;70.34;95894.97;5063484;28;21875;-68
2021/03/17 09:31:05;;;;;;;3.97;3.53;;;;;;;4.57;69.55;95891.84;5061736;28;20218;-69
2021/03/17 09:33:35;;;;;;;4.60;4.20;;;;;;;4.42;71.44;95884.56;5062571;28;20210;-69
2021/03/17 09:36:06;;;;;;;5.13;4.60;;;;;;;3.98;73.95;95897.25;5060822;28;20246;-69
2021/03/17 09:38:35;;;;;;;4.53;4.13;;;;;;;3.95;70.98;95889.69;5068544;28;21248;-69
2021/03/17 09:41:10;;;;;;;6.57;5.60;;;;;;;3.65;72.11;95883.63;5065611;28;20237;-69
2021/03/17 09:43:56;;;;;;;5.03;4.30;;;;;;;3.44;74.28;95885.50;5059313;28;20229;-69
2021/03/17 09:46:31;;;;;;;3.47;3.17;;;;;;;3.18;73.16;95900.00;5061520;28;20621;-68
2021/03/17 09:49:03;;;;;;;2.97;2.70;;;;;;;3.32;74.32;95907.47;5058970;28;20735;-69
2021/03/17 09:51:33;;;;;;;3.50;3.20;;;;;;;3.38;71.71;95896.47;5066147;28;20230;-69
2021/03/17 09:54:03;;;;;;;3.60;2.50;;;;;;;3.06;69.13;95892.28;5065627;28;20337;-68
2021/03/17 09:56:49;;;;;;;8.57;2.03;;;;;;;2.84;69.97;95903.72;5060854;28;20721;-69
2021/03/17 09:59:19;;;;;;;3.27;2.90;;;;;;;2.61;70.04;95902.22;5061813;28;20309;-68
2021/03/17 10:02:04;;;;;;;2.63;2.43;;;;;;;2.43;68.69;95904.59;5070407;28;20713;-69
2021/03/17 10:04:34;;;;;;;2.53;2.20;;;;;;;2.51;71.08;95904.78;5063098;28;20250;-69
2021/03/17 10:07:03;;;;;;;3.80;2.30;;;;;;;2.43;71.34;95902.00;5066166;28;20210;-69
2021/03/17 10:09:32;;;;;;;3.97;2.70;;;;;;;2.47;74.25;95899.94;5067000;28;20361;-69
2021/03/17 10:12:02;;;;;;;3.07;2.73;;;;;;;2.34;74.89;95910.56;5065363;28;20218;-69
2021/03/17 10:14:30;;;;;;;3.07;2.77;;;;;;;2.27;69.66;95904.22;5065463;28;20717;-69
2021/03/17 10:17:00;;;;;;;7.23;2.90;;;;;;;2.43;71.66;95895.94;5069961;28;20282;-69
2021/03/17 10:19:29;;;;;;;2.47;2.27;;;;;;;2.61;74.82;95901.41;5065791;28;20225;-69
2021/03/17 10:21:57;;;;;;;2.53;2.33;;;;;;;3.00;75.07;95898.00;5062479;28;20222;-69
2021/03/17 10:24:33;;;;;;;2.80;1.87;;;;;;;3.36;73.16;95898.41;5062868;28;20623;-69
2021/03/17 10:27:01;;;;;;;2.97;1.57;;;;;;;3.21;70.09;95891.94;5064792;28;20226;-69
2021/03/17 10:29:29;;;;;;;1.87;1.47;;;;;;;3.54;71.24;95891.56;5066083;28;20221;-68
2021/03/17 10:31:56;;;;;;;2.50;1.80;;;;;;;3.51;70.51;95886.63;5063513;28;20279;-69
2021/03/17 10:34:26;;;;;;;1.83;1.30;;;;;;;3.76;70.85;95884.47;5064267;28;20246;-68
2021/03/17 10:36:55;;;;;;;2.17;1.20;;;;;;;3.92;70.11;95888.16;5062188;28;20275;-69
2021/03/17 10:39:29;;;;;;;1.50;1.27;;;;;;;3.93;68.50;95887.22;5064694;28;20218;-69
2021/03/17 10:41:57;;;;;;;3.53;2.03;;;;;;;4.29;66.70;95883.06;5064573;28;20235;-69
2021/03/17 10:44:26;;;;;;;3.17;1.03;;;;;;;5.12;61.11;95876.22;5063922;28;20223;-69
2021/03/17 10:47:07;;;;;;;2.13;1.43;;;;;;;6.22;57.91;95870.81;5060813;28;20219;-69
2021/03/17 10:49:37;;;;;;;2.17;1.93;;;;;;;7.43;56.68;95860.34;5058026;28;20310;-69
2021/03/17 10:52:07;;;;;;;2.17;1.20;;;;;;;8.03;55.25;95858.31;5072321;28;20216;-67
2021/03/17 10:54:37;;;;;;;2.63;2.33;;;;;;;7.55;50.51;95861.69;5062749;28;20347;-69
2021/03/17 10:57:22;;;;;;;0.73;0.73;;;;;;;8.25;51.30;95865.56;5063499;28;20216;-69
2021/03/17 10:59:49;;;;;;;2.57;1.03;;;;;;;9.36;51.36;95857.78;5064798;28;20565;-69
2021/03/17 11:02:19;;;;;;;1.73;1.63;;;;;;;7.91;48.07;95865.69;5063113;28;20234;-69
2021/03/17 11:05:09;;;;;;;0.93;0.87;;;;;;;7.57;53.78;95862.34;5057225;28;20226;-69
2021/03/17 11:08:09;;;;;;;1.20;0.50;;;;;;;5.52;51.48;95871.59;5059216;28;20217;-68
2021/03/17 11:10:46;;;;;;;1.33;1.10;;;;;;;6.07;55.84;95867.09;5061708;28;20212;-69
2021/03/17 11:13:44;;;;;;;1.07;0.97;;;;;;;6.66;57.22;95867.34;5058944;28;20220;-68
2021/03/17 11:16:35;;;;;;;2.17;1.53;;;;;;;7.28;53.92;95865.38;5059404;28;20237;-69
2021/03/17 11:19:09;;;;;;;2.23;1.60;;;;;;;7.44;53.30;95856.72;5066798;28;20222;-69
2021/03/17 11:21:39;;;;;;;0.40;0.40;;;;;;;7.95;51.92;95866.19;5060103;28;20218;-69
2021/03/17 11:24:08;;;;;;;2.50;2.03;;;;;;;8.80;49.44;95861.44;5063865;28;20296;-69
2021/03/17 11:26:37;;;;;;;0.60;0.60;;;;;;;9.53;47.38;95855.09;5063659;28;20245;-69
2021/03/17 11:29:14;;;;;;;0.90;0.77;;;;;;;10.09;46.78;95853.09;5057082;28;20291;-69
2021/03/17 11:31:41;;;;;;;2.50;1.17;;;;;;;9.50;48.24;95853.59;5058318;28;20232;-69
2021/03/17 11:34:10;;;;;;;3.20;1.67;;;;;;;8.95;47.46;95854.47;5059772;28;20250;-69
2021/03/17 11:36:37;;;;;;;4.50;1.17;;;;;;;7.81;51.06;95849.25;5059717;28;20230;-69
2021/03/17 11:39:07;;;;;;;1.13;0.60;;;;;;;8.04;50.52;95851.25;5063599;28;20231;-69
2021/03/17 11:41:36;;;;;;;0.50;0.50;;;;;;;6.70;45.79;95860.81;5065160;28;20474;-69
2021/03/17 11:44:03;;;;;;;1.10;1.00;;;;;;;5.83;53.24;95853.72;5063704;28;20922;-69
2021/03/17 11:46:31;;;;;;;0.40;0.30;;;;;;;5.67;51.93;95860.47;5071232;28;20283;-69
2021/03/17 11:48:58;;;;;;;2.37;0.30;;;;;;;5.29;54.30;95869.38;5059672;28;20721;-68
2021/03/17 11:51:25;;;;;;;0.53;0.53;;;;;;;5.07;53.89;95861.94;5056363;28;20226;-69
2021/03/17 11:53:53;;;;;;;1.10;0.90;;;;;;;4.90;52.15;95870.53;5054805;28;20244;-69
2021/03/17 11:56:20;;;;;;;0.93;0.83;;;;;;;4.70;56.02;95857.53;5056359;28;20237;-68
2021/03/17 11:58:48;;;;;;;0.40;0.40;;;;;;;5.02;56.05;95849.25;5054052;28;20301;-69
2021/03/17 12:01:15;;;;;;;0.37;0.27;;;;;;;5.51;55.66;95854.25;5060262;28;20219;-69
2021/03/17 12:03:48;;;;;;;1.43;0.70;;;;;;;5.92;53.71;95848.44;5063386;28;20253;-69